createdAt,value
2019-02-26T00:02:26.078Z,26.57
2019-02-26T00:04:58.610Z,26.52
2019-02-26T00:07:30.441Z,25.95
2019-02-26T00:10:04.027Z,25.90
2019-02-26T00:12:35.494Z,24.77
2019-02-26T00:15:09.392Z,26.33
2019-02-26T00:17:43.015Z,25.60
2019-02-26T00:20:13.298Z,25.60
2019-02-26T00:22:45.780Z,26.25
2019-02-26T00:25:29.551Z,25.12
2019-02-26T00:27:59.881Z,25.15
2019-02-26T00:30:31.216Z,25.97
2019-02-26T00:33:02.795Z,25.88
2019-02-26T00:35:41.715Z,26.33
2019-02-26T00:38:13.410Z,26.50
2019-02-26T00:40:44.329Z,27.07
2019-02-26T00:43:14.853Z,27.22
2019-02-26T00:45:45.211Z,25.52
2019-02-26T00:48:15.545Z,26.45
2019-02-26T00:50:46.423Z,26.15
2019-02-26T00:53:19.139Z,27.70
2019-02-26T00:55:48.803Z,25.75
2019-02-26T00:58:19.393Z,26.52
2019-02-26T01:00:59.091Z,27.20
2019-02-26T01:03:29.411Z,26.87
2019-02-26T01:06:01.439Z,26.23
2019-02-26T01:08:31.759Z,26.48
2019-02-26T01:11:03.785Z,26.77
2019-02-26T01:13:33.995Z,27.27
2019-02-26T01:16:04.427Z,27.67
2019-02-26T01:18:34.817Z,26.95
2019-02-26T01:21:05.096Z,27.93
2019-02-26T01:23:35.355Z,27.48
2019-02-26T01:26:12.098Z,27.75
2019-02-26T01:28:44.134Z,27.48
2019-02-26T01:31:13.981Z,27.93
2019-02-26T01:33:46.751Z,27.60
2019-02-26T01:36:19.149Z,28.80
2019-02-26T01:38:51.049Z,27.87
2019-02-26T01:41:23.278Z,29.30
2019-02-26T01:43:53.484Z,28.77
2019-02-26T01:46:24.018Z,28.98
2019-02-26T01:48:55.215Z,28.20
2019-02-26T01:51:28.467Z,28.27
2019-02-26T01:53:58.453Z,27.90
2019-02-26T01:56:28.714Z,27.75
2019-02-26T01:59:02.116Z,28.92
2019-02-26T02:01:31.133Z,29.52
2019-02-26T02:04:01.425Z,29.05
2019-02-26T02:06:33.122Z,29.45
2019-02-26T02:09:03.807Z,29.20
2019-02-26T02:11:37.609Z,29.30
2019-02-26T02:14:08.225Z,30.15
2019-02-26T02:16:40.416Z,30.27
2019-02-26T02:19:15.524Z,30.62
2019-02-26T02:21:42.615Z,30.65
2019-02-26T02:24:15.064Z,31.77
2019-02-26T02:26:47.460Z,31.52
2019-02-26T02:29:17.315Z,32.23
2019-02-26T02:31:48.559Z,31.87
2019-02-26T02:34:18.863Z,32.25
2019-02-26T02:36:49.061Z,31.90
2019-02-26T02:39:20.870Z,33.88
2019-02-26T02:41:54.728Z,32.58
2019-02-26T02:44:25.504Z,32.45
2019-02-26T02:46:55.609Z,31.02
2019-02-26T02:49:25.925Z,32.10
2019-02-26T02:51:56.264Z,32.15
2019-02-26T02:54:26.618Z,31.45
2019-02-26T02:56:59.808Z,33.10
2019-02-26T02:59:30.995Z,33.70
2019-02-26T03:02:00.670Z,33.40
2019-02-26T03:04:34.409Z,32.85
2019-02-26T03:07:04.433Z,33.85
2019-02-26T03:09:37.745Z,33.85
2019-02-26T03:12:19.236Z,34.78
2019-02-26T03:14:49.846Z,33.60
2019-02-26T03:17:20.243Z,33.90
2019-02-26T03:19:50.736Z,33.28
2019-02-26T03:22:21.713Z,36.08
2019-02-26T03:24:54.388Z,33.02
2019-02-26T03:27:27.806Z,33.78
2019-02-26T03:29:58.294Z,34.08
2019-02-26T03:32:28.086Z,33.92
2019-02-26T03:35:02.162Z,33.75
2019-02-26T03:37:31.409Z,33.75
2019-02-26T03:40:03.707Z,35.00
2019-02-26T03:42:36.472Z,33.60
2019-02-26T03:45:09.352Z,34.65
2019-02-26T03:50:13.763Z,33.48
2019-02-26T03:52:45.082Z,34.30
2019-02-26T03:55:18.281Z,34.78
2019-02-26T03:57:50.389Z,34.50
2019-02-26T04:00:20.316Z,36.03
2019-02-26T04:02:51.968Z,35.30
2019-02-26T04:05:22.453Z,34.92
2019-02-26T04:07:58.909Z,36.23
2019-02-26T04:10:28.222Z,34.45
2019-02-26T04:12:59.529Z,34.75
2019-02-26T04:15:35.131Z,35.58
2019-02-26T04:18:03.662Z,36.58
2019-02-26T04:20:33.988Z,35.15
2019-02-26T04:23:04.565Z,34.60
2019-02-26T04:25:52.089Z,33.90
2019-02-26T04:28:27.228Z,33.28
2019-02-26T04:30:59.447Z,34.58
2019-02-26T04:34:06.191Z,34.88
2019-02-26T04:37:04.645Z,35.30
2019-02-26T04:39:47.689Z,34.60
2019-02-26T04:42:40.953Z,34.55
2019-02-26T04:45:32.942Z,34.55
2019-02-26T04:48:09.146Z,34.75
2019-02-26T04:50:41.379Z,34.67
2019-02-26T04:53:11.340Z,34.95
2019-02-26T04:55:44.712Z,35.10
2019-02-26T04:58:17.036Z,35.70
2019-02-26T05:00:46.144Z,35.20
2019-02-26T05:03:20.086Z,34.38
2019-02-26T05:05:53.765Z,33.42
2019-02-26T05:08:21.515Z,34.73
2019-02-26T05:10:52.535Z,34.20
2019-02-26T05:13:25.248Z,34.63
2019-02-26T05:15:55.625Z,35.05
2019-02-26T05:18:26.537Z,34.63
2019-02-26T05:20:59.380Z,34.03
2019-02-26T05:23:33.019Z,34.85
2019-02-26T05:26:11.003Z,34.78
2019-02-26T05:28:49.718Z,32.15
2019-02-26T05:31:21.401Z,33.25
2019-02-26T05:33:55.394Z,34.83
2019-02-26T05:36:28.230Z,35.38
2019-02-26T05:39:02.293Z,34.18
2019-02-26T05:41:34.111Z,34.73
2019-02-26T05:44:08.347Z,34.80
2019-02-26T05:46:37.339Z,33.83
2019-02-26T05:49:10.565Z,33.20
2019-02-26T05:51:39.501Z,33.33
2019-02-26T05:54:12.200Z,33.18
2019-02-26T05:56:43.587Z,33.42
2019-02-26T05:59:15.494Z,34.70
2019-02-26T06:01:46.530Z,34.15
2019-02-26T06:04:19.594Z,34.63
2019-02-26T06:06:51.069Z,32.50
2019-02-26T06:09:23.512Z,33.88
2019-02-26T06:11:53.104Z,33.40
2019-02-26T06:14:25.463Z,32.95
2019-02-26T06:16:55.911Z,31.97
2019-02-26T06:19:44.933Z,32.53
2019-02-26T06:22:20.186Z,32.08
2019-02-26T06:24:47.339Z,33.05
2019-02-26T06:27:19.570Z,32.85
2019-02-26T06:29:52.832Z,34.48
2019-02-26T06:32:21.379Z,33.88
2019-02-26T06:34:51.693Z,33.70
2019-02-26T06:37:23.734Z,34.55
2019-02-26T06:39:55.604Z,35.35
2019-02-26T06:42:26.118Z,35.50
2019-02-26T06:44:56.525Z,35.20
2019-02-26T06:47:29.276Z,35.00
2019-02-26T06:49:58.804Z,33.90
2019-02-26T06:52:29.959Z,35.28
2019-02-26T06:55:02.974Z,35.90
2019-02-26T06:57:32.852Z,35.70
2019-02-26T07:00:04.248Z,36.73
2019-02-26T07:02:35.359Z,37.03
2019-02-26T07:05:08.707Z,37.30
2019-02-26T07:07:38.980Z,41.00
2019-02-26T07:10:13.826Z,41.70
2019-02-26T07:12:45.524Z,44.83
2019-02-26T07:15:16.315Z,40.98
2019-02-26T07:17:46.731Z,38.15
2019-02-26T07:20:17.055Z,36.53
2019-02-26T07:22:49.754Z,37.38
2019-02-26T07:25:20.347Z,39.20
2019-02-26T07:27:51.394Z,36.95
2019-02-26T07:30:22.647Z,36.28
2019-02-26T07:32:52.965Z,35.10
2019-02-26T07:35:23.255Z,37.08
2019-02-26T07:37:54.617Z,43.95
2019-02-26T07:40:27.785Z,37.90
2019-02-26T07:42:57.425Z,45.90
2019-02-26T07:45:29.643Z,38.88
2019-02-26T07:48:01.020Z,36.93
2019-02-26T07:50:36.961Z,37.17
2019-02-26T07:53:03.372Z,39.10
2019-02-26T07:55:35.393Z,37.98
2019-02-26T07:58:06.208Z,37.13
2019-02-26T08:00:39.802Z,37.38
2019-02-26T08:03:10.571Z,40.15
2019-02-26T08:05:40.934Z,37.90
2019-02-26T08:08:12.070Z,39.38
2019-02-26T08:10:45.357Z,40.65
2019-02-26T08:13:15.041Z,41.58
2019-02-26T08:15:47.117Z,37.88
2019-02-26T08:18:17.436Z,44.00
2019-02-26T08:20:47.798Z,40.40
2019-02-26T08:23:19.870Z,43.23
2019-02-26T08:26:06.828Z,39.75
2019-02-26T08:28:38.870Z,41.20
2019-02-26T08:31:11.202Z,41.05
2019-02-26T08:33:40.884Z,41.60
2019-02-26T08:36:13.583Z,40.63
2019-02-26T08:38:43.116Z,39.55
2019-02-26T08:41:13.456Z,39.67
2019-02-26T08:43:46.345Z,41.30
2019-02-26T08:46:17.161Z,38.13
2019-02-26T08:48:48.371Z,40.25
2019-02-26T08:51:21.483Z,39.83
2019-02-26T08:53:51.996Z,40.05
2019-02-26T08:56:23.942Z,38.85
2019-02-26T08:58:55.278Z,40.10
2019-02-26T09:01:25.592Z,39.15
2019-02-26T09:03:56.639Z,40.48
2019-02-26T09:06:27.741Z,40.98
2019-02-26T09:08:59.653Z,40.95
2019-02-26T09:11:33.777Z,40.90
2019-02-26T09:14:04.749Z,40.73
2019-02-26T09:16:35.455Z,40.10
2019-02-26T09:19:05.761Z,41.02
2019-02-26T09:21:36.890Z,40.75
2019-02-26T09:24:07.995Z,40.80
2019-02-26T09:26:38.291Z,39.92
2019-02-26T09:29:10.322Z,40.92
2019-02-26T09:31:40.544Z,40.70
2019-02-26T09:34:10.852Z,39.30
2019-02-26T09:36:41.131Z,40.70
2019-02-26T09:39:13.109Z,40.40
2019-02-26T09:41:45.448Z,40.75
2019-02-26T09:44:15.322Z,41.80
2019-02-26T09:46:45.522Z,40.48
2019-02-26T09:49:15.872Z,42.27
2019-02-26T09:51:46.172Z,40.60
2019-02-26T09:54:17.772Z,39.25
2019-02-26T09:56:48.516Z,41.75
2019-02-26T09:59:18.790Z,39.90
2019-02-26T10:01:49.090Z,40.43
2019-02-26T10:04:20.140Z,40.55
2019-02-26T10:06:51.345Z,41.75
2019-02-26T10:09:21.932Z,41.00
2019-02-26T10:11:52.437Z,42.10
2019-02-26T10:14:22.735Z,40.10
2019-02-26T10:16:55.054Z,40.23
2019-02-26T10:19:25.906Z,40.13
2019-02-26T10:21:57.296Z,41.70
2019-02-26T10:24:30.183Z,41.85
2019-02-26T10:27:03.025Z,41.08
2019-02-26T10:29:32.453Z,39.63
2019-02-26T10:32:03.651Z,40.45
2019-02-26T10:34:33.940Z,39.70
2019-02-26T10:37:04.415Z,43.25
2019-02-26T10:39:34.673Z,38.00
2019-02-26T10:42:04.973Z,40.28
2019-02-26T10:44:35.399Z,38.88
2019-02-26T10:47:07.753Z,40.10
2019-02-26T10:49:38.390Z,39.23
2019-02-26T10:52:10.918Z,40.08
2019-02-26T10:54:43.446Z,37.93
2019-02-26T10:57:14.499Z,37.93
2019-02-26T10:59:45.119Z,37.42
2019-02-26T11:02:17.783Z,39.83
2019-02-26T11:04:50.422Z,38.98
2019-02-26T11:07:20.674Z,35.83
2019-02-26T11:09:53.042Z,36.50
2019-02-26T11:12:25.176Z,37.00
2019-02-26T11:15:01.584Z,37.45
2019-02-26T11:17:31.727Z,35.50
2019-02-26T11:20:04.485Z,36.63
2019-02-26T11:22:35.241Z,35.52
2019-02-26T11:25:08.731Z,35.78
2019-02-26T11:27:40.895Z,35.80
2019-02-26T11:30:23.838Z,35.48
2019-02-26T11:32:58.721Z,36.15
2019-02-26T11:35:27.406Z,34.45
2019-02-26T11:37:58.284Z,33.63
2019-02-26T11:40:30.687Z,33.70
2019-02-26T11:43:10.906Z,34.13
2019-02-26T11:45:35.158Z,32.48
2019-02-26T11:48:06.628Z,33.08
2019-02-26T11:50:38.968Z,33.48
2019-02-26T11:53:10.015Z,33.15
2019-02-26T11:55:40.403Z,31.85
2019-02-26T11:58:13.061Z,32.85
2019-02-26T12:00:50.787Z,32.75
2019-02-26T12:03:24.973Z,32.13
2019-02-26T12:05:55.889Z,33.67
2019-02-26T12:08:25.889Z,32.65
2019-02-26T12:11:01.177Z,32.63
2019-02-26T12:13:28.306Z,32.90
2019-02-26T12:15:59.163Z,32.73
2019-02-26T12:18:29.503Z,31.07
2019-02-26T12:21:00.222Z,32.35
2019-02-26T12:23:31.854Z,31.23
2019-02-26T12:26:03.789Z,30.43
2019-02-26T12:28:35.903Z,31.02
2019-02-26T12:31:08.086Z,31.02
2019-02-26T12:33:37.855Z,31.30
2019-02-26T12:36:09.802Z,29.55
2019-02-26T12:38:40.023Z,30.32
2019-02-26T12:41:12.209Z,31.55
2019-02-26T12:43:43.975Z,31.17
2019-02-26T12:46:14.125Z,29.82
2019-02-26T12:48:46.951Z,29.18
2019-02-26T12:51:16.380Z,29.63
2019-02-26T12:53:50.079Z,28.77
2019-02-26T12:56:20.833Z,30.05
2019-02-26T12:58:54.570Z,30.02
2019-02-26T13:01:23.986Z,31.10
2019-02-26T13:03:55.100Z,28.60
2019-02-26T13:06:25.803Z,29.05
2019-02-26T13:08:56.118Z,29.23
2019-02-26T13:11:26.389Z,32.73
2019-02-26T13:13:57.911Z,31.05
2019-02-26T13:16:28.223Z,27.60
2019-02-26T13:19:03.769Z,28.23
2019-02-26T13:21:30.451Z,27.55
2019-02-26T13:24:11.444Z,27.15
2019-02-26T13:26:36.204Z,27.27
2019-02-26T13:29:04.554Z,27.60
2019-02-26T13:31:41.705Z,26.60
2019-02-26T13:34:13.687Z,26.90
2019-02-26T13:36:39.706Z,27.98
2019-02-26T13:39:10.629Z,26.30
2019-02-26T13:41:41.244Z,27.05
2019-02-26T13:44:11.667Z,27.27
2019-02-26T13:46:42.077Z,28.95
2019-02-26T13:49:12.387Z,28.80
2019-02-26T13:51:42.689Z,28.62
2019-02-26T13:54:13.125Z,29.12
2019-02-26T13:56:43.380Z,29.60
2019-02-26T13:59:13.705Z,29.48
2019-02-26T14:01:44.101Z,33.30
2019-02-26T14:04:14.426Z,33.25
2019-02-26T14:06:44.903Z,33.80
2019-02-26T14:09:15.210Z,33.50
2019-02-26T14:11:45.569Z,32.45
2019-02-26T14:14:15.886Z,31.65
2019-02-26T14:16:46.334Z,30.17
2019-02-26T14:19:17.649Z,30.45
2019-02-26T14:21:47.927Z,29.90
2019-02-26T14:24:18.278Z,22.93
2019-02-26T14:26:48.604Z,23.77
2019-02-26T14:29:18.865Z,24.00
2019-02-26T14:31:50.882Z,23.15
2019-02-26T14:34:21.142Z,24.43
2019-02-26T14:36:53.633Z,22.52
2019-02-26T14:39:26.146Z,22.52
2019-02-26T14:41:56.440Z,22.40
2019-02-26T14:44:26.755Z,20.50
2019-02-26T14:46:57.008Z,20.65
2019-02-26T14:49:27.331Z,21.48
2019-02-26T14:51:57.608Z,21.20
2019-02-26T14:54:27.833Z,21.17
2019-02-26T14:56:58.106Z,19.42
2019-02-26T14:59:28.953Z,20.45
2019-02-26T15:02:00.905Z,20.60
2019-02-26T15:04:32.278Z,21.55
2019-02-26T15:07:02.533Z,21.97
2019-02-26T15:09:33.146Z,21.57
2019-02-26T15:12:06.871Z,21.80
2019-02-26T15:17:14.888Z,22.20
2019-02-26T15:19:49.583Z,21.75
2019-02-26T15:22:17.067Z,22.20
2019-02-26T15:24:47.473Z,20.92
2019-02-26T15:27:17.773Z,22.25
2019-02-26T15:29:50.792Z,23.20
2019-02-26T15:32:21.094Z,23.18
2019-02-26T15:34:51.498Z,22.80
2019-02-26T15:37:21.848Z,23.83
2019-02-26T15:39:52.221Z,25.15
2019-02-26T15:42:22.527Z,25.48
2019-02-26T15:44:52.720Z,25.27
2019-02-26T15:47:24.465Z,26.68
2019-02-26T15:49:54.753Z,27.52
2019-02-26T15:52:25.060Z,27.60
2019-02-26T15:54:57.658Z,28.73
2019-02-26T15:57:28.636Z,27.98
2019-02-26T16:00:00.431Z,28.67
2019-02-26T16:02:30.990Z,31.07
2019-02-26T16:05:01.270Z,31.65
2019-02-26T16:07:32.829Z,31.70
2019-02-26T16:10:03.180Z,31.15
2019-02-26T16:12:33.682Z,30.43
2019-02-26T16:15:08.178Z,31.02
2019-02-26T16:17:38.924Z,32.98
2019-02-26T16:20:14.839Z,33.73
2019-02-26T16:22:45.997Z,34.18
2019-02-26T16:25:16.615Z,33.23
2019-02-26T16:27:46.959Z,34.67
2019-02-26T16:30:19.902Z,35.05
2019-02-26T16:32:50.232Z,36.28
2019-02-26T16:35:24.712Z,34.92
2019-02-26T16:37:52.464Z,35.45
2019-02-26T16:40:22.764Z,35.15
2019-02-26T16:42:53.103Z,35.25
2019-02-26T16:45:27.348Z,37.35
2019-02-26T16:47:57.705Z,38.58
2019-02-26T16:50:32.405Z,38.75
2019-02-26T16:53:02.728Z,40.63
2019-02-26T16:55:33.317Z,42.88
2019-02-26T16:58:03.717Z,49.18
2019-02-26T17:00:34.020Z,56.20
2019-02-26T17:03:04.921Z,56.40
2019-02-26T17:05:35.198Z,50.67
2019-02-26T17:08:05.759Z,46.58
2019-02-26T17:10:35.959Z,42.48
2019-02-26T17:13:35.668Z,41.08
2019-02-26T17:16:07.036Z,40.60
2019-02-26T17:18:37.346Z,40.75
2019-02-26T17:21:07.625Z,43.60
2019-02-26T17:23:37.929Z,44.65
2019-02-26T17:26:08.231Z,43.60
2019-02-26T17:28:38.531Z,46.30
2019-02-26T17:31:08.930Z,46.28
2019-02-26T17:33:39.220Z,47.55
2019-02-26T17:36:09.509Z,45.33
2019-02-26T17:38:39.811Z,51.40
2019-02-26T17:41:12.247Z,52.93
2019-02-26T17:43:42.051Z,57.13
2019-02-26T17:46:12.321Z,54.25
2019-02-26T17:48:43.713Z,54.63
2019-02-26T17:51:14.251Z,53.70
2019-02-26T17:53:44.577Z,59.60
2019-02-26T17:56:14.764Z,60.25
2019-02-26T17:58:45.104Z,54.45
2019-02-26T18:01:15.398Z,52.88
2019-02-26T18:03:45.705Z,53.65
2019-02-26T18:06:15.969Z,50.40
2019-02-26T18:08:46.288Z,48.65
2019-02-26T18:11:16.553Z,51.83
2019-02-26T18:13:46.857Z,60.30
2019-02-26T18:16:17.134Z,57.73
2019-02-26T18:18:47.911Z,73.80
2019-02-26T18:21:18.167Z,71.70
2019-02-26T18:23:48.517Z,68.97
2019-02-26T18:26:18.812Z,61.25
2019-02-26T18:28:49.263Z,57.88
2019-02-26T18:31:26.290Z,56.83
2019-02-26T18:33:51.628Z,57.85
2019-02-26T18:36:21.967Z,69.35
2019-02-26T18:38:52.429Z,61.08
2019-02-26T18:41:22.672Z,69.62
2019-02-26T18:43:53.025Z,57.80
2019-02-26T18:46:23.516Z,56.65
2019-02-26T18:48:53.857Z,54.15
2019-02-26T18:51:24.131Z,51.95
2019-02-26T18:53:54.482Z,51.13
2019-02-26T18:56:24.770Z,52.17
2019-02-26T18:58:55.121Z,51.95
2019-02-26T19:01:25.444Z,53.68
2019-02-26T19:03:55.888Z,52.40
2019-02-26T19:06:27.005Z,54.90
2019-02-26T19:08:57.952Z,57.20
2019-02-26T19:11:28.274Z,57.17
2019-02-26T19:13:58.711Z,56.63
2019-02-26T19:16:29.040Z,57.20
2019-02-26T19:18:59.360Z,58.08
2019-02-26T19:21:29.679Z,56.95
2019-02-26T19:24:00.094Z,57.73
2019-02-26T19:26:48.451Z,59.25
2019-02-26T19:29:18.773Z,62.10
2019-02-26T19:31:50.135Z,58.58
2019-02-26T19:34:20.437Z,57.10
2019-02-26T19:36:50.787Z,56.80
2019-02-26T19:39:21.083Z,55.30
2019-02-26T19:41:51.362Z,54.05
2019-02-26T19:44:21.678Z,55.63
2019-02-26T19:46:51.907Z,55.75
2019-02-26T19:49:22.212Z,56.28
2019-02-26T19:51:52.572Z,52.43
2019-02-26T19:54:22.891Z,53.68
2019-02-26T19:56:54.698Z,54.77
2019-02-26T19:59:26.919Z,55.35
2019-02-26T20:01:59.046Z,54.58
2019-02-26T20:04:28.984Z,55.48
2019-02-26T20:07:00.418Z,57.60
2019-02-26T20:09:30.654Z,58.98
2019-02-26T20:12:01.034Z,63.45
2019-02-26T20:14:32.479Z,63.92
2019-02-26T20:17:11.603Z,65.75
2019-02-26T20:19:35.892Z,64.03
2019-02-26T20:22:06.239Z,63.30
2019-02-26T20:24:36.540Z,61.45
2019-02-26T20:27:06.865Z,62.48
2019-02-26T20:29:37.179Z,63.60
2019-02-26T20:32:07.444Z,63.55
2019-02-26T20:34:37.775Z,65.12
2019-02-26T20:37:09.590Z,67.30
2019-02-26T20:39:40.905Z,67.08
2019-02-26T20:42:11.811Z,67.62
2019-02-26T20:44:45.252Z,72.35
2019-02-26T20:47:14.049Z,65.52
2019-02-26T20:49:46.286Z,65.28
2019-02-26T20:52:16.272Z,61.13
2019-02-26T20:54:46.599Z,61.73
2019-02-26T20:57:17.856Z,60.40
2019-02-26T20:59:51.708Z,60.12
2019-02-26T21:02:20.060Z,62.95
2019-02-26T21:04:50.383Z,64.20
2019-02-26T21:07:21.789Z,64.82
2019-02-26T21:09:52.602Z,63.02
2019-02-26T21:12:23.918Z,66.12
2019-02-26T21:14:54.220Z,65.12
2019-02-26T21:17:26.552Z,63.58
2019-02-26T21:19:56.907Z,66.35
2019-02-26T21:22:27.147Z,65.57
2019-02-26T21:24:58.155Z,65.60
2019-02-26T21:27:28.756Z,64.07
2019-02-26T21:29:59.105Z,62.48
2019-02-26T21:32:29.377Z,62.55
2019-02-26T21:34:59.746Z,63.10
2019-02-26T21:37:32.674Z,60.80
2019-02-26T21:40:15.871Z,62.65
2019-02-26T21:42:46.570Z,61.63
2019-02-26T21:45:18.712Z,63.17
2019-02-26T21:47:49.426Z,61.75
2019-02-26T21:50:22.847Z,62.00
2019-02-26T21:52:59.762Z,62.55
2019-02-26T21:55:24.045Z,63.30
2019-02-26T22:00:38.709Z,63.33
2019-02-26T22:03:06.755Z,62.80
2019-02-26T22:05:37.926Z,65.42
2019-02-26T22:08:08.753Z,64.05
2019-02-26T22:10:42.511Z,63.98
2019-02-26T22:13:11.601Z,64.85
2019-02-26T22:15:44.580Z,65.97
2019-02-26T22:18:14.920Z,66.07
2019-02-26T22:20:45.264Z,69.07
2019-02-26T22:23:15.848Z,69.42
2019-02-26T22:25:49.740Z,73.47
2019-02-26T22:28:23.103Z,71.42
2019-02-26T22:30:55.908Z,69.05
2019-02-26T22:33:25.771Z,69.42
2019-02-26T22:35:56.975Z,69.65
2019-02-26T22:38:28.779Z,69.75
2019-02-26T22:40:59.975Z,69.72
2019-02-26T22:43:31.393Z,69.07
2019-02-26T22:46:01.809Z,69.25
2019-02-26T22:48:32.104Z,69.75
2019-02-26T22:51:02.304Z,68.40
2019-02-26T22:53:36.372Z,70.17
2019-02-26T22:56:04.588Z,70.08
2019-02-26T22:58:35.843Z,69.47
2019-02-26T23:01:13.330Z,71.17
2019-02-26T23:03:45.918Z,68.40
2019-02-26T23:06:16.850Z,68.33
2019-02-26T23:08:47.597Z,71.12
2019-02-26T23:11:17.870Z,73.12
2019-02-26T23:13:49.020Z,73.57
2019-02-26T23:16:19.752Z,72.87
2019-02-26T23:18:50.454Z,70.85
2019-02-26T23:21:21.686Z,74.47
2019-02-26T23:23:54.716Z,70.92
2019-02-26T23:26:25.021Z,73.05
2019-02-26T23:28:55.518Z,71.90
2019-02-26T23:31:27.011Z,73.75
2019-02-26T23:33:58.959Z,74.40
2019-02-26T23:36:29.321Z,73.65
2019-02-26T23:38:59.629Z,74.72
2019-02-26T23:41:30.792Z,70.67
2019-02-26T23:44:02.901Z,74.90
2019-02-26T23:46:33.189Z,74.20
2019-02-26T23:49:03.525Z,75.65
2019-02-26T23:51:33.730Z,73.55
2019-02-26T23:54:04.740Z,75.37
2019-02-26T23:56:35.980Z,80.38
2019-02-26T23:59:06.328Z,82.10
